| time (UTC) | temp C | wind direction | speed KPH | gust KPH | rain 1hr cm | rain 24hr cm | rain mn cm | humidity % | barometer mb |
| 20260507162010 | 18 | 0.0 | 0.0 | 0.00 | 0.00 | 0.00 | 59 | ||
| 20260507160009 | 17 | 0.0 | 0.0 | 0.00 | 0.00 | 0.00 | 60 | ||
| 20260507154009 | 18 | 0.0 | 0.0 | 0.00 | 0.00 | 0.00 | 60 | ||
| 20260507152008 | 18 | 0.0 | 0.0 | 0.00 | 0.00 | 0.00 | 59 | ||
| 20260507150007 | 18 | 0.0 | 0.0 | 0.00 | 0.00 | 0.00 | 58 | ||
| 20260507144007 | 18 | 0.0 | 0.0 | 0.00 | 0.00 | 0.00 | 60 | ||
| 20260507142006 | 18 | 0.0 | 0.0 | 0.00 | 0.00 | 0.00 | 60 | ||
| 20260507140006 | 19 | 0.0 | 0.0 | 0.00 | 0.00 | 0.00 | 57 | ||
| 20260507134005 | 19 | 0.0 | 0.0 | 0.00 | 0.00 | 0.00 | 59 | ||
| 20260507132004 | 20 | 0.0 | 0.0 | 0.00 | 0.00 | 0.00 | 58 | ||
| 20260507130004 | 20 | 0.0 | 0.0 | 0.00 | 0.00 | 0.00 | 55 | ||
| 20260507124004 | 26 | 0.0 | 0.0 | 0.00 | 0.00 | 0.00 | 46 | ||
| 20260507122004 | -17 | 0.0 | 0.0 | 0.00 | 0.00 | 0.00 | |||
| 20260507120003 | 27 | 0.0 | 0.0 | 0.00 | 0.00 | 0.00 | 49 | ||
| 20260507114002 | 19 | 0.0 | 0.0 | 0.00 | 0.00 | 0.00 | 70 | ||
| 20260507112002 | 18 | 0.0 | 0.0 | 0.00 | 0.00 | 0.00 | 73 | ||
| 20260507110002 | 17 | 0.0 | 0.0 | 0.00 | 0.00 | 0.00 | 74 | ||
| 20260507104001 | 16 | 0.0 | 0.0 | 0.00 | 0.00 | 0.00 | 80 | ||
| 20260507102001 | 16 | 0.0 | 0.0 | 0.00 | 0.00 | 0.00 | 80 | ||
| 20260507100000 | 17 | 0.0 | 0.0 | 0.00 | 0.00 | 0.00 | 82 | ||
| 20260507093959 | 15 | 0.0 | 0.0 | 0.00 | 0.00 | 0.00 | 86 | ||
| 20260507091959 | 14 | 0.0 | 0.0 | 0.00 | 0.00 | 0.00 | 87 | ||
| 20260507083958 | 14 | 0.0 | 0.0 | 0.00 | 0.00 | 0.00 | 93 | ||
| 20260507081957 | 13 | 0.0 | 0.0 | 0.00 | 0.00 | 0.00 | 95 | ||
| 20260507075957 | 13 | 0.0 | 0.0 | 0.00 | 0.00 | 0.00 | 95 | ||
| 20260507073956 | 13 | 0.0 | 0.0 | 0.00 | 0.00 | 0.00 | 96 | ||
| 20260507071955 | 12 | 0.0 | 0.0 | 0.00 | 0.00 | 0.00 | 96 | ||
| 20260507065954 | 12 | 0.0 | 0.0 | 0.00 | 0.00 | 0.00 | 96 | ||
| 20260507063954 | 12 | 0.0 | 0.0 | 0.00 | 0.00 | 0.00 | 97 | ||
| 20260507061953 | 12 | 0.0 | 0.0 | 0.00 | 0.00 | 0.00 | 97 | ||
| 20260507055953 | 12 | 0.0 | 0.0 | 0.00 | 0.00 | 0.00 | 96 | ||
| 20260507053953 | 11 | 0.0 | 0.0 | 0.00 | 0.00 | 0.00 | 96 | ||
| 20260507051952 | 12 | 0.0 | 0.0 | 0.00 | 0.00 | 0.00 | 96 | ||
| 20260507045952 | 12 | 0.0 | 0.0 | 0.00 | 0.00 | 0.00 | 96 | ||
| 20260507043952 | 11 | 0.0 | 0.0 | 0.00 | 0.00 | 0.00 | 95 | ||
| 20260507041951 | -17 | 0.0 | 0.0 | 0.00 | 0.00 | 0.00 | |||
| 20260507033951 | -17 | 0.0 | 0.0 | 0.00 | 0.00 | 0.00 | |||
| 20260507031950 | -17 | 0.0 | 0.0 | 0.00 | 0.00 | 0.00 | |||
| 20260507025950 | 11 | 0.0 | 0.0 | 0.00 | 0.00 | 0.00 | 94 | ||
| 20260507023949 | 12 | 0.0 | 0.0 | 0.00 | 0.00 | 0.00 | 94 | ||
| 20260507021949 | 12 | 0.0 | 0.0 | 0.00 | 0.00 | 0.00 | 94 | ||
| 20260507015948 | 12 | 0.0 | 0.0 | 0.00 | 0.00 | 0.00 | 93 | ||
| 20260507013948 | 12 | 0.0 | 0.0 | 0.00 | 0.00 | 0.00 | 93 | ||
| 20260507011947 | 12 | 0.0 | 0.0 | 0.00 | 0.00 | 0.00 | 93 | ||
| 20260507005947 | 12 | 0.0 | 0.0 | 0.00 | 0.00 | 0.00 | 93 | ||
| 20260507003947 | 12 | 0.0 | 0.0 | 0.00 | 0.00 | 0.00 | 93 | ||
| 20260507001947 | 12 | 0.0 | 0.0 | 0.00 | 0.00 | 0.00 | 93 | ||
| 20260506235946 | 12 | 0.0 | 0.0 | 0.00 | 0.00 | 0.00 | 93 | ||
| 20260506233945 | 12 | 0.0 | 0.0 | 0.00 | 0.00 | 0.00 | 93 | ||
| 20260506231945 | 11 | 0.0 | 0.0 | 0.00 | 0.00 | 0.00 | 92 | ||
| 20260506225945 | 12 | 0.0 | 0.0 | 0.00 | 0.00 | 0.00 | 92 | ||
| 20260506223945 | 12 | 0.0 | 0.0 | 0.00 | 0.00 | 0.00 | 92 | ||
| 20260506221945 | 12 | 0.0 | 0.0 | 0.00 | 0.00 | 0.00 | 93 | ||
| 20260506215944 | 12 | 0.0 | 0.0 | 0.00 | 0.00 | 0.00 | 93 | ||
| 20260506213943 | 12 | 0.0 | 0.0 | 0.00 | 0.00 | 0.00 | 93 | ||
| 20260506211943 | 12 | 0.0 | 0.0 | 0.00 | 0.00 | 0.00 | 93 | ||
| 20260506205942 | -17 | 0.0 | 0.0 | 0.00 | 0.00 | 0.00 | |||
| 20260506203942 | 12 | 0.0 | 0.0 | 0.00 | 0.00 | 0.00 | 92 | ||
| 20260506201941 | 12 | 0.0 | 0.0 | 0.00 | 0.00 | 0.00 | 92 | ||
| 20260506195941 | 12 | 0.0 | 0.0 | 0.00 | 0.00 | 0.00 | 92 | ||
| 20260506193941 | 13 | 0.0 | 0.0 | 0.00 | 0.00 | 0.00 | 92 | ||
| 20260506191941 | 13 | 0.0 | 0.0 | 0.00 | 0.00 | 0.00 | 92 | ||
| 20260506185940 | 13 | 0.0 | 0.0 | 0.00 | 0.00 | 0.00 | 92 | ||
| 20260506181939 | 13 | 0.0 | 0.0 | 0.00 | 0.00 | 0.00 | 92 | ||
| 20260506175938 | 13 | 0.0 | 0.0 | 0.00 | 0.00 | 0.00 | 92 | ||
| 20260506173938 | 13 | 0.0 | 0.0 | 0.00 | 0.00 | 0.00 | 92 | ||
| 20260506171937 | 13 | 0.0 | 0.0 | 0.00 | 0.00 | 0.00 | 91 | ||
| 20260506165936 | 13 | 0.0 | 0.0 | 0.00 | 0.00 | 0.00 | 91 | ||
| 20260506163936 | 14 | 0.0 | 0.0 | 0.00 | 0.00 | 0.00 | 91 | ||
| 20260506162946 | -17 | 0.0 | 0.0 | 0.00 | 0.00 | 0.00 |